Time;durP1;ratioP1;P1;durP2;ratioP2;P2;SDS_P1;SDS_P2;PMS_P1;PMS_P2;Temp;Humidity;BMP_temperature;BMP_pressure;BME280_temperature;BME280_humidity;BME280_pressure;Samples;Min_cycle;Max_cycle;Signal;HPM_P1;HPM_P2
2020/12/31 00:01:23;;;;;;;9.13;4.40;;;;;;;;;;5045334;28;20043;-72
2020/12/31 00:03:48;;;;;;;8.63;4.32;;;;;;;;;;5048646;28;20107;-72
2020/12/31 00:06:14;;;;;;;9.65;4.28;;;;;;;;;;5047932;28;20060;-71
2020/12/31 00:08:39;;;;;;;10.02;4.75;;;;;;;;;;5048332;28;20552;-71
2020/12/31 00:11:04;;;;;;;7.70;3.30;;;;;;;;;;5048859;28;20135;-71
2020/12/31 00:13:29;;;;;;;9.90;3.53;;;;;;;;;;5049001;28;20058;-71
2020/12/31 00:15:56;;;;;;;9.75;3.30;;;;;;;;;;5049071;28;20021;-71
2020/12/31 00:18:21;;;;;;;9.25;4.40;;;;;;;;;;5045673;28;20036;-72
2020/12/31 00:20:46;;;;;;;8.88;4.68;;;;;;;;;;5042991;28;20029;-71
2020/12/31 00:23:11;;;;;;;10.38;5.30;;;;;;;;;;5052871;28;20385;-71
2020/12/31 00:25:45;;;;;;;10.25;4.85;;;;;;;;;;5053071;28;20062;-71
2020/12/31 00:28:10;;;;;;;11.23;4.93;;;;;;;;;;5052719;28;20017;-71
2020/12/31 00:30:35;;;;;;;7.25;3.83;;;;;;;;;;5051885;28;20027;-71
2020/12/31 00:33:00;;;;;;;8.45;3.95;;;;;;;;;;5052863;28;20461;-71
2020/12/31 00:35:27;;;;;;;11.35;5.07;;;;;;;;;;5051921;28;20029;-71
2020/12/31 00:37:53;;;;;;;10.73;5.43;;;;;;;;;;5052771;28;20104;-71
2020/12/31 00:40:18;;;;;;;7.28;3.80;;;;;;;;;;5051558;28;20116;-71
2020/12/31 00:42:44;;;;;;;7.25;3.08;;;;;;;;;;5052631;28;20047;-71
2020/12/31 00:45:09;;;;;;;6.68;3.88;;;;;;;;;;5052034;28;20439;-71
2020/12/31 00:47:34;;;;;;;13.57;6.90;;;;;;;;;;5052367;28;20027;-71
2020/12/31 00:49:59;;;;;;;10.05;4.53;;;;;;;;;;5052010;28;20255;-71
2020/12/31 00:52:24;;;;;;;9.82;4.40;;;;;;;;;;5052423;28;20108;-71
2020/12/31 00:54:49;;;;;;;5.13;2.85;;;;;;;;;;5052420;28;20021;-71
2020/12/31 00:57:15;;;;;;;7.20;3.60;;;;;;;;;;5051886;28;20033;-71
2020/12/31 00:59:40;;;;;;;4.82;2.72;;;;;;;;;;5076142;22;20402;-68
2020/12/31 01:02:05;;;;;;;14.20;5.30;;;;;;;;;;5059216;28;20039;-68
2020/12/31 01:04:30;;;;;;;9.98;3.80;;;;;;;;;;5059221;28;20040;-68
2020/12/31 01:06:55;;;;;;;7.10;3.43;;;;;;;;;;5064379;28;20017;-68
2020/12/31 01:09:20;;;;;;;5.43;2.93;;;;;;;;;;5058356;28;20271;-69
2020/12/31 01:11:46;;;;;;;10.48;4.70;;;;;;;;;;5056085;28;20624;-67
2020/12/31 01:14:11;;;;;;;10.07;4.68;;;;;;;;;;5057531;28;20103;-67
2020/12/31 01:16:36;;;;;;;14.93;6.43;;;;;;;;;;5059411;28;20087;-67
2020/12/31 01:19:02;;;;;;;6.40;3.13;;;;;;;;;;5056067;28;20035;-67
2020/12/31 01:21:27;;;;;;;12.75;6.82;;;;;;;;;;5056261;28;20025;-67
2020/12/31 01:23:52;;;;;;;10.65;4.03;;;;;;;;;;5062348;28;20016;-68
2020/12/31 01:26:28;;;;;;;6.13;3.37;;;;;;;;;;5064129;28;20505;-67
2020/12/31 01:28:53;;;;;;;5.93;3.40;;;;;;;;;;5051784;28;20623;-68
2020/12/31 01:31:18;;;;;;;12.83;6.67;;;;;;;;;;5052497;28;20029;-67
2020/12/31 01:33:44;;;;;;;9.63;3.77;;;;;;;;;;5061791;28;20316;-67
2020/12/31 01:36:09;;;;;;;10.00;5.03;;;;;;;;;;5061855;28;20283;-67
2020/12/31 01:38:34;;;;;;;13.77;5.27;;;;;;;;;;5055531;28;20087;-67
2020/12/31 01:40:59;;;;;;;7.47;4.13;;;;;;;;;;5057349;28;20266;-67
2020/12/31 01:43:24;;;;;;;6.20;3.22;;;;;;;;;;5058671;28;20371;-67
2020/12/31 01:45:49;;;;;;;7.90;4.18;;;;;;;;;;5062231;28;20212;-67
2020/12/31 01:48:15;;;;;;;7.70;3.63;;;;;;;;;;5067144;28;20032;-67
2020/12/31 01:50:40;;;;;;;13.02;5.35;;;;;;;;;;5056028;28;20028;-67
2020/12/31 01:53:05;;;;;;;11.55;5.00;;;;;;;;;;5059330;28;20047;-67
2020/12/31 01:55:31;;;;;;;9.52;2.95;;;;;;;;;;5056632;28;20028;-67
2020/12/31 01:57:56;;;;;;;13.98;3.00;;;;;;;;;;5054540;28;20017;-67
2020/12/31 02:00:22;;;;;;;8.70;4.32;;;;;;;;;;5048356;28;20037;-67
2020/12/31 02:02:47;;;;;;;11.52;5.85;;;;;;;;;;5042296;28;20025;-67
2020/12/31 02:05:12;;;;;;;5.67;2.80;;;;;;;;;;5055536;28;20074;-67
2020/12/31 02:07:37;;;;;;;12.65;3.50;;;;;;;;;;5060247;28;20362;-68
2020/12/31 02:10:03;;;;;;;11.80;5.05;;;;;;;;;;5065187;28;20387;-67
2020/12/31 02:12:30;;;;;;;5.10;2.65;;;;;;;;;;5058839;28;20024;-67
2020/12/31 02:14:55;;;;;;;13.45;5.10;;;;;;;;;;5057365;28;20100;-67
2020/12/31 02:17:21;;;;;;;9.68;5.07;;;;;;;;;;5050444;28;20120;-67
2020/12/31 02:19:46;;;;;;;11.25;4.53;;;;;;;;;;5050941;28;20020;-67
2020/12/31 02:22:11;;;;;;;12.10;3.90;;;;;;;;;;5067630;28;20431;-67
2020/12/31 02:24:37;;;;;;;2.55;1.70;;;;;;;;;;5053604;28;20025;-68
2020/12/31 02:27:02;;;;;;;8.18;4.28;;;;;;;;;;5055044;28;20021;-67
2020/12/31 02:29:27;;;;;;;6.97;3.58;;;;;;;;;;5051648;28;20099;-67
2020/12/31 02:31:52;;;;;;;8.70;4.75;;;;;;;;;;5049178;28;20025;-67
2020/12/31 02:34:17;;;;;;;4.17;2.43;;;;;;;;;;5058035;28;20501;-67
2020/12/31 02:36:43;;;;;;;10.77;3.50;;;;;;;;;;5065266;28;20263;-67
2020/12/31 02:39:09;;;;;;;10.07;4.38;;;;;;;;;;5051132;28;20021;-67
2020/12/31 02:41:35;;;;;;;9.48;4.35;;;;;;;;;;5054442;28;20239;-67
2020/12/31 02:44:00;;;;;;;9.10;4.05;;;;;;;;;;5062618;28;20032;-67
2020/12/31 02:46:26;;;;;;;8.48;4.75;;;;;;;;;;5065850;28;20012;-67
2020/12/31 02:48:52;;;;;;;7.47;5.15;;;;;;;;;;5062551;28;20017;-68
2020/12/31 02:51:17;;;;;;;8.10;4.28;;;;;;;;;;5053049;28;20023;-67
2020/12/31 02:53:42;;;;;;;10.93;5.60;;;;;;;;;;5056763;28;20059;-68
2020/12/31 02:56:12;;;;;;;8.65;4.47;;;;;;;;;;5064247;28;20372;-67
2020/12/31 02:58:38;;;;;;;8.05;3.70;;;;;;;;;;5053604;28;20054;-67
2020/12/31 03:01:03;;;;;;;9.85;3.55;;;;;;;;;;5052890;28;20114;-67
2020/12/31 03:03:28;;;;;;;12.40;6.50;;;;;;;;;;5055551;28;20017;-67
2020/12/31 03:05:53;;;;;;;16.17;6.90;;;;;;;;;;5059854;28;20078;-67
2020/12/31 03:08:19;;;;;;;5.38;2.33;;;;;;;;;;5064465;28;20071;-68
2020/12/31 03:10:44;;;;;;;9.23;4.97;;;;;;;;;;5059721;28;20028;-67
2020/12/31 03:13:09;;;;;;;6.28;3.47;;;;;;;;;;5069364;28;20115;-68
2020/12/31 03:15:34;;;;;;;13.50;5.50;;;;;;;;;;5056366;28;20032;-68
2020/12/31 03:17:59;;;;;;;5.93;2.63;;;;;;;;;;5051795;28;20025;-68
2020/12/31 03:20:24;;;;;;;10.87;5.33;;;;;;;;;;5049911;28;20031;-68
2020/12/31 03:22:50;;;;;;;13.43;6.13;;;;;;;;;;5058803;28;20262;-69
2020/12/31 03:25:15;;;;;;;12.52;5.32;;;;;;;;;;5054581;28;20103;-68
2020/12/31 03:27:40;;;;;;;7.53;3.40;;;;;;;;;;5052078;28;20016;-68
2020/12/31 03:30:05;;;;;;;10.70;4.72;;;;;;;;;;5063567;28;20021;-68
2020/12/31 03:32:31;;;;;;;5.75;3.25;;;;;;;;;;5055690;28;20039;-68
2020/12/31 03:34:56;;;;;;;5.22;3.00;;;;;;;;;;5053757;28;20099;-68
2020/12/31 03:37:23;;;;;;;9.20;4.18;;;;;;;;;;5056289;28;20049;-68
2020/12/31 03:39:48;;;;;;;6.97;2.92;;;;;;;;;;5057993;28;20029;-67
2020/12/31 03:42:14;;;;;;;9.37;4.43;;;;;;;;;;5058818;28;20104;-68
2020/12/31 03:44:39;;;;;;;12.70;5.50;;;;;;;;;;5057225;28;20759;-68
2020/12/31 03:47:04;;;;;;;8.30;4.57;;;;;;;;;;5054920;28;20350;-67
2020/12/31 03:49:29;;;;;;;8.73;3.67;;;;;;;;;;5052741;28;20274;-67
2020/12/31 03:51:54;;;;;;;11.75;6.07;;;;;;;;;;5052832;28;20021;-68
2020/12/31 03:54:19;;;;;;;14.35;6.82;;;;;;;;;;5054098;28;20029;-67
2020/12/31 03:56:45;;;;;;;15.85;6.18;;;;;;;;;;5053420;28;20548;-67
2020/12/31 03:59:10;;;;;;;7.90;4.15;;;;;;;;;;5060808;28;20044;-68
2020/12/31 04:01:35;;;;;;;11.30;4.82;;;;;;;;;;5052832;28;20044;-68
2020/12/31 04:04:01;;;;;;;8.50;4.78;;;;;;;;;;5056709;28;20021;-68
2020/12/31 04:06:26;;;;;;;5.40;3.08;;;;;;;;;;5045395;28;20059;-68
2020/12/31 04:08:52;;;;;;;8.38;4.70;;;;;;;;;;5065003;28;20020;-68
2020/12/31 04:11:17;;;;;;;12.13;6.03;;;;;;;;;;5068561;28;20392;-68
2020/12/31 04:13:42;;;;;;;15.15;6.03;;;;;;;;;;5062409;28;20024;-68
2020/12/31 04:16:07;;;;;;;10.30;4.00;;;;;;;;;;5062204;28;20175;-68
2020/12/31 04:18:32;;;;;;;8.48;3.85;;;;;;;;;;5060666;28;20041;-67
2020/12/31 04:20:58;;;;;;;8.38;3.95;;;;;;;;;;5055240;28;20025;-68
2020/12/31 04:23:23;;;;;;;7.75;3.78;;;;;;;;;;5064402;28;20035;-68
2020/12/31 04:25:49;;;;;;;11.48;5.20;;;;;;;;;;5058710;28;20013;-68
2020/12/31 04:28:14;;;;;;;15.18;5.10;;;;;;;;;;5061987;28;20028;-68
2020/12/31 04:30:39;;;;;;;8.70;3.65;;;;;;;;;;5061587;28;20073;-68
2020/12/31 04:33:04;;;;;;;12.93;5.20;;;;;;;;;;5065911;28;20020;-68
2020/12/31 04:35:29;;;;;;;14.80;5.78;;;;;;;;;;5055523;28;20090;-68
2020/12/31 04:37:55;;;;;;;18.55;5.18;;;;;;;;;;5060326;28;20096;-67
2020/12/31 04:40:20;;;;;;;13.10;4.82;;;;;;;;;;5059018;28;20434;-68
2020/12/31 04:42:49;;;;;;;5.15;3.15;;;;;;;;;;5060861;28;20054;-68
2020/12/31 04:45:14;;;;;;;5.70;3.10;;;;;;;;;;5071163;28;20452;-68
2020/12/31 04:47:45;;;;;;;14.45;5.32;;;;;;;;;;5062984;28;20036;-68
2020/12/31 04:50:12;;;;;;;8.15;4.30;;;;;;;;;;5057421;28;20016;-68
2020/12/31 04:52:37;;;;;;;13.82;4.50;;;;;;;;;;5057552;28;20067;-68
2020/12/31 04:55:02;;;;;;;5.50;2.67;;;;;;;;;;5056729;28;20059;-68
2020/12/31 04:57:27;;;;;;;9.70;3.83;;;;;;;;;;5056211;28;20044;-68
2020/12/31 04:59:53;;;;;;;5.13;2.60;;;;;;;;;;5061018;28;20028;-67
2020/12/31 05:02:18;;;;;;;8.65;3.17;;;;;;;;;;5041259;28;20028;-68
2020/12/31 05:04:43;;;;;;;5.20;2.05;;;;;;;;;;5058383;28;20126;-68
2020/12/31 05:07:08;;;;;;;5.95;2.90;;;;;;;;;;5057819;28;20013;-68
2020/12/31 05:09:34;;;;;;;6.40;2.75;;;;;;;;;;5059444;28;20025;-67
2020/12/31 05:11:59;;;;;;;7.47;3.85;;;;;;;;;;5068013;28;20419;-68
2020/12/31 05:14:25;;;;;;;8.52;4.03;;;;;;;;;;5068570;28;20055;-68
2020/12/31 05:16:51;;;;;;;7.85;4.03;;;;;;;;;;5055087;28;20064;-68
2020/12/31 05:19:20;;;;;;;6.88;3.92;;;;;;;;;;5050757;28;20049;-67
2020/12/31 05:21:45;;;;;;;5.33;2.50;;;;;;;;;;5051934;28;20114;-68
2020/12/31 05:24:11;;;;;;;4.25;2.55;;;;;;;;;;5062608;28;20326;-68
2020/12/31 05:26:36;;;;;;;5.90;2.83;;;;;;;;;;5061413;28;20092;-68
2020/12/31 05:29:01;;;;;;;4.97;2.63;;;;;;;;;;5053203;28;20437;-68
2020/12/31 05:31:26;;;;;;;10.45;3.08;;;;;;;;;;5055910;28;20013;-68
2020/12/31 05:33:52;;;;;;;4.97;2.63;;;;;;;;;;5062096;28;20035;-68
2020/12/31 05:36:24;;;;;;;9.07;4.05;;;;;;;;;;5069284;28;20021;-68
2020/12/31 05:38:56;;;;;;;7.75;3.50;;;;;;;;;;5062414;28;20032;-68
2020/12/31 05:41:22;;;;;;;4.95;2.38;;;;;;;;;;5050941;28;20555;-67
2020/12/31 05:43:52;;;;;;;7.95;2.63;;;;;;;;;;5061003;28;20060;-67
2020/12/31 05:46:17;;;;;;;7.80;4.00;;;;;;;;;;5060178;28;20148;-67
2020/12/31 05:48:42;;;;;;;6.05;2.45;;;;;;;;;;5044036;28;20108;-68
2020/12/31 05:51:24;;;;;;;6.20;3.55;;;;;;;;;;5044776;28;20028;-68
2020/12/31 05:53:51;;;;;;;5.85;3.22;;;;;;;;;;5045704;28;20331;-68
2020/12/31 05:56:17;;;;;;;6.03;2.33;;;;;;;;;;5046092;28;20078;-68
2020/12/31 05:58:46;;;;;;;5.32;2.15;;;;;;;;;;5054033;28;20530;-68
2020/12/31 06:01:12;;;;;;;3.22;1.92;;;;;;;;;;5062711;28;20091;-68
2020/12/31 06:03:44;;;;;;;4.85;3.00;;;;;;;;;;5059101;28;20481;-68
2020/12/31 06:06:11;;;;;;;5.50;2.53;;;;;;;;;;5059274;28;20465;-67
2020/12/31 06:08:46;;;;;;;5.50;3.58;;;;;;;;;;5055545;28;20031;-68
2020/12/31 06:11:14;;;;;;;8.82;4.45;;;;;;;;;;5059198;28;20155;-68
2020/12/31 06:13:47;;;;;;;4.30;2.55;;;;;;;;;;5054389;28;20028;-68
2020/12/31 06:16:15;;;;;;;7.22;3.25;;;;;;;;;;5036206;28;20036;-68
2020/12/31 06:18:43;;;;;;;9.27;3.90;;;;;;;;;;5058288;28;20486;-68
2020/12/31 06:21:13;;;;;;;8.27;4.18;;;;;;;;;;5056331;28;20258;-68
2020/12/31 06:23:38;;;;;;;2.47;1.75;;;;;;;;;;5060487;28;20027;-68
2020/12/31 06:26:27;;;;;;;4.97;2.45;;;;;;;;;;5055049;28;20025;-68
2020/12/31 06:28:52;;;;;;;3.05;2.10;;;;;;;;;;5050146;28;20013;-68
2020/12/31 06:31:17;;;;;;;9.57;3.35;;;;;;;;;;5062913;28;20020;-68
2020/12/31 06:33:47;;;;;;;6.28;3.85;;;;;;;;;;5053563;28;20489;-68
2020/12/31 06:36:12;;;;;;;5.60;2.53;;;;;;;;;;5052371;28;20092;-68
2020/12/31 06:38:44;;;;;;;5.43;2.97;;;;;;;;;;5053841;28;20028;-68
2020/12/31 06:41:27;;;;;;;6.38;2.72;;;;;;;;;;5056519;28;20024;-67
2020/12/31 06:44:20;;;;;;;8.40;4.80;;;;;;;;;;5059964;28;20037;-68
2020/12/31 06:46:46;;;;;;;5.95;3.10;;;;;;;;;;5059515;28;20024;-68
2020/12/31 06:49:11;;;;;;;4.40;1.65;;;;;;;;;;5045295;28;20026;-68
2020/12/31 06:51:37;;;;;;;8.80;3.42;;;;;;;;;;5051975;28;20060;-68
2020/12/31 06:54:02;;;;;;;7.03;3.25;;;;;;;;;;5061784;28;20020;-69
2020/12/31 06:56:44;;;;;;;5.93;2.78;;;;;;;;;;5066379;28;20051;-68
2020/12/31 06:59:29;;;;;;;10.07;4.53;;;;;;;;;;5050127;28;20031;-68
2020/12/31 07:01:55;;;;;;;8.18;4.03;;;;;;;;;;5056447;28;20025;-69
2020/12/31 07:04:26;;;;;;;5.63;3.08;;;;;;;;;;5065186;28;20531;-68
2020/12/31 07:06:51;;;;;;;7.40;3.92;;;;;;;;;;5053557;28;20153;-68
2020/12/31 07:09:31;;;;;;;11.65;4.55;;;;;;;;;;5050644;28;20044;-68
2020/12/31 07:11:57;;;;;;;8.45;4.82;;;;;;;;;;5052934;28;20040;-68
2020/12/31 07:14:23;;;;;;;18.05;3.38;;;;;;;;;;5042216;28;20055;-68
2020/12/31 07:16:58;;;;;;;7.57;3.58;;;;;;;;;;5048285;28;20852;-68
2020/12/31 07:19:39;;;;;;;8.27;2.35;;;;;;;;;;5050226;28;20048;-69
2020/12/31 07:22:10;;;;;;;12.55;6.75;;;;;;;;;;5050358;28;20043;-69
2020/12/31 07:24:56;;;;;;;6.75;3.20;;;;;;;;;;5055592;28;20036;-69
2020/12/31 07:27:23;;;;;;;10.10;4.47;;;;;;;;;;5052891;28;20384;-69
2020/12/31 07:29:55;;;;;;;10.55;5.63;;;;;;;;;;5054321;28;20021;-68
2020/12/31 07:32:40;;;;;;;8.70;3.90;;;;;;;;;;5053102;28;20031;-68
2020/12/31 07:35:17;;;;;;;11.25;5.60;;;;;;;;;;5048024;28;20024;-69
2020/12/31 07:37:43;;;;;;;10.90;4.43;;;;;;;;;;5055984;28;20029;-69
2020/12/31 07:40:08;;;;;;;10.77;4.00;;;;;;;;;;5046197;28;20029;-69
2020/12/31 07:42:33;;;;;;;9.85;4.40;;;;;;;;;;5044180;28;20275;-69
2020/12/31 07:44:58;;;;;;;9.35;4.80;;;;;;;;;;5054906;28;20116;-69
2020/12/31 07:47:24;;;;;;;10.50;5.55;;;;;;;;;;5053166;28;20457;-69
2020/12/31 07:49:51;;;;;;;8.63;3.92;;;;;;;;;;5032533;28;20119;-68
2020/12/31 07:52:16;;;;;;;10.65;5.10;;;;;;;;;;5052663;28;20551;-68
2020/12/31 07:54:42;;;;;;;10.60;4.68;;;;;;;;;;5048907;28;20054;-69
2020/12/31 07:57:11;;;;;;;13.85;7.75;;;;;;;;;;5051791;28;20028;-69
2020/12/31 07:59:54;;;;;;;9.70;4.80;;;;;;;;;;5056684;28;20016;-69
2020/12/31 08:02:19;;;;;;;10.48;5.53;;;;;;;;;;5054082;28;20540;-68
2020/12/31 08:04:44;;;;;;;8.80;5.28;;;;;;;;;;5045171;28;20024;-68
2020/12/31 08:07:13;;;;;;;8.77;6.05;;;;;;;;;;5054097;28;20465;-68
2020/12/31 08:09:39;;;;;;;10.20;5.13;;;;;;;;;;5061727;28;20025;-68
2020/12/31 08:12:05;;;;;;;12.85;5.60;;;;;;;;;;5050986;28;20459;-68
2020/12/31 08:14:30;;;;;;;12.48;5.90;;;;;;;;;;5051817;28;20457;-68
2020/12/31 08:16:59;;;;;;;11.82;5.72;;;;;;;;;;5053182;28;20766;-68
2020/12/31 08:19:25;;;;;;;12.88;6.30;;;;;;;;;;5050942;28;20171;-68
2020/12/31 08:21:54;;;;;;;8.95;4.25;;;;;;;;;;5048420;28;20107;-68
2020/12/31 08:24:20;;;;;;;15.60;8.25;;;;;;;;;;5051513;28;20043;-68
2020/12/31 08:26:55;;;;;;;9.82;4.75;;;;;;;;;;5060589;28;20213;-68
2020/12/31 08:29:24;;;;;;;7.93;4.38;;;;;;;;;;5066684;28;20055;-68
2020/12/31 08:31:52;;;;;;;10.07;4.90;;;;;;;;;;5053853;28;20130;-67
2020/12/31 08:34:19;;;;;;;12.02;5.78;;;;;;;;;;5055111;28;20411;-67
2020/12/31 08:36:49;;;;;;;9.88;5.30;;;;;;;;;;5060313;28;20492;-68
2020/12/31 08:39:14;;;;;;;14.05;6.82;;;;;;;;;;5036631;28;20032;-68
2020/12/31 08:41:52;;;;;;;16.55;7.85;;;;;;;;;;5060417;28;20043;-68
2020/12/31 08:44:19;;;;;;;15.48;7.50;;;;;;;;;;5062360;28;20059;-68
2020/12/31 08:46:47;;;;;;;8.48;5.72;;;;;;;;;;5055763;28;20125;-68
2020/12/31 08:49:21;;;;;;;15.40;7.25;;;;;;;;;;5057180;28;20034;-68
2020/12/31 08:51:46;;;;;;;9.90;6.13;;;;;;;;;;5054405;28;20028;-68
2020/12/31 08:54:14;;;;;;;15.52;9.07;;;;;;;;;;5064590;28;20051;-68
2020/12/31 08:56:39;;;;;;;13.27;5.13;;;;;;;;;;5057571;28;20389;-68
2020/12/31 08:59:05;;;;;;;11.10;5.00;;;;;;;;;;5053351;28;20039;-68
2020/12/31 09:01:30;;;;;;;9.73;5.30;;;;;;;;;;5056593;28;20043;-68
2020/12/31 09:04:09;;;;;;;8.15;3.15;;;;;;;;;;5070897;28;20024;-68
2020/12/31 09:06:34;;;;;;;17.70;8.88;;;;;;;;;;5062407;28;20029;-68
2020/12/31 09:08:59;;;;;;;7.68;4.25;;;;;;;;;;5031515;28;20021;-68
2020/12/31 09:11:25;;;;;;;9.70;5.22;;;;;;;;;;5053253;28;20025;-68
2020/12/31 09:13:51;;;;;;;11.65;4.45;;;;;;;;;;5061552;28;20025;-68
2020/12/31 09:16:16;;;;;;;10.45;5.40;;;;;;;;;;5059009;28;20112;-68
2020/12/31 09:18:42;;;;;;;6.55;3.95;;;;;;;;;;5052893;28;20395;-68
2020/12/31 09:21:08;;;;;;;10.23;4.30;;;;;;;;;;5051583;28;20040;-68
2020/12/31 09:23:33;;;;;;;10.55;3.33;;;;;;;;;;5018206;28;20076;-68
2020/12/31 09:25:58;;;;;;;7.18;4.03;;;;;;;;;;5052930;28;20032;-68
2020/12/31 09:28:27;;;;;;;13.27;6.35;;;;;;;;;;5069562;28;20036;-68
2020/12/31 09:30:53;;;;;;;11.68;5.03;;;;;;;;;;5056798;28;20382;-68
2020/12/31 09:33:19;;;;;;;15.38;5.38;;;;;;;;;;5069085;28;20047;-68
2020/12/31 09:35:44;;;;;;;9.80;5.93;;;;;;;;;;5060224;28;20020;-68
2020/12/31 09:38:10;;;;;;;13.13;7.40;;;;;;;;;;5067690;28;20016;-68
2020/12/31 09:40:35;;;;;;;9.18;4.70;;;;;;;;;;5053024;28;20033;-69
2020/12/31 09:43:00;;;;;;;11.32;5.68;;;;;;;;;;5052800;28;20044;-69
2020/12/31 09:45:29;;;;;;;11.68;5.13;;;;;;;;;;5067347;28;20052;-69
2020/12/31 09:47:54;;;;;;;10.15;5.65;;;;;;;;;;5063672;28;20099;-69
2020/12/31 09:50:19;;;;;;;7.88;3.88;;;;;;;;;;5064027;28;20115;-69
2020/12/31 09:52:45;;;;;;;9.27;4.80;;;;;;;;;;5067997;28;20028;-69
2020/12/31 09:55:10;;;;;;;15.10;7.43;;;;;;;;;;5068876;28;20274;-68
2020/12/31 09:57:35;;;;;;;7.82;4.93;;;;;;;;;;5043793;28;20347;-69
2020/12/31 10:00:01;;;;;;;7.20;4.07;;;;;;;;;;5060214;28;20635;-68
2020/12/31 10:02:26;;;;;;;13.48;4.40;;;;;;;;;;5050215;28;20271;-69
2020/12/31 10:04:51;;;;;;;8.23;3.15;;;;;;;;;;5057255;28;20477;-69
2020/12/31 10:07:16;;;;;;;9.90;4.85;;;;;;;;;;5049121;28;20009;-69
2020/12/31 10:09:41;;;;;;;8.05;4.75;;;;;;;;;;5054849;28;20017;-69
2020/12/31 10:12:07;;;;;;;10.77;6.18;;;;;;;;;;5051922;28;20017;-69
2020/12/31 10:14:32;;;;;;;9.20;4.97;;;;;;;;;;5046513;28;20031;-69
2020/12/31 10:16:57;;;;;;;7.13;3.83;;;;;;;;;;5056397;28;20116;-69
2020/12/31 10:19:23;;;;;;;8.80;4.78;;;;;;;;;;5052478;28;20060;-69
2020/12/31 10:21:48;;;;;;;4.82;2.47;;;;;;;;;;5051509;28;20021;-69
2020/12/31 10:24:14;;;;;;;9.38;4.13;;;;;;;;;;5056968;28;20029;-69
2020/12/31 10:26:39;;;;;;;6.25;3.28;;;;;;;;;;5051723;28;20017;-67
2020/12/31 10:29:04;;;;;;;8.27;4.03;;;;;;;;;;5054478;28;20020;-68
2020/12/31 10:31:29;;;;;;;7.85;3.85;;;;;;;;;;5048823;28;20021;-68
2020/12/31 10:33:55;;;;;;;6.72;3.22;;;;;;;;;;5055690;28;20481;-68
2020/12/31 10:36:20;;;;;;;8.55;4.18;;;;;;;;;;5053036;28;20030;-69
2020/12/31 10:38:45;;;;;;;5.95;3.15;;;;;;;;;;5054216;28;20024;-68
2020/12/31 10:41:14;;;;;;;8.27;4.50;;;;;;;;;;5054080;28;20492;-69
2020/12/31 10:43:39;;;;;;;8.30;4.47;;;;;;;;;;5047894;28;20082;-68
2020/12/31 10:46:05;;;;;;;4.97;3.53;;;;;;;;;;5046135;28;20029;-68
2020/12/31 10:48:30;;;;;;;7.57;3.85;;;;;;;;;;5053894;28;20112;-68
2020/12/31 10:50:58;;;;;;;6.53;3.15;;;;;;;;;;5051365;28;20036;-68
2020/12/31 10:53:24;;;;;;;12.60;7.03;;;;;;;;;;5051337;28;20385;-69
2020/12/31 10:55:49;;;;;;;8.45;4.22;;;;;;;;;;5051292;28;20027;-68
2020/12/31 10:58:14;;;;;;;8.82;4.85;;;;;;;;;;5051954;28;20052;-68
2020/12/31 11:00:39;;;;;;;10.50;4.07;;;;;;;;;;5050170;28;21120;-68
2020/12/31 11:03:04;;;;;;;5.93;3.10;;;;;;;;;;5051557;28;20037;-68
2020/12/31 11:05:29;;;;;;;10.25;4.85;;;;;;;;;;5037245;28;20249;-69
2020/12/31 11:07:55;;;;;;;8.10;3.30;;;;;;;;;;5040554;28;20017;-68
2020/12/31 11:10:20;;;;;;;9.85;3.85;;;;;;;;;;5053632;28;20447;-69
2020/12/31 11:12:45;;;;;;;8.98;3.95;;;;;;;;;;5056389;28;20473;-69
2020/12/31 11:15:10;;;;;;;6.50;3.15;;;;;;;;;;5056620;28;20056;-69
2020/12/31 11:17:35;;;;;;;7.47;4.10;;;;;;;;;;5060065;28;20053;-68
2020/12/31 11:20:00;;;;;;;3.03;1.63;;;;;;;;;;5050892;28;20100;-68
2020/12/31 11:22:26;;;;;;;11.57;4.87;;;;;;;;;;5058562;28;20275;-68
2020/12/31 11:24:51;;;;;;;10.85;5.82;;;;;;;;;;5056838;28;20319;-69
2020/12/31 11:27:16;;;;;;;4.37;2.97;;;;;;;;;;5051689;28;20029;-68
2020/12/31 11:29:41;;;;;;;5.38;3.28;;;;;;;;;;5056846;28;20254;-69
2020/12/31 11:32:06;;;;;;;6.53;3.25;;;;;;;;;;5054942;28;20054;-69
2020/12/31 11:34:32;;;;;;;6.10;3.53;;;;;;;;;;5061461;28;20056;-68
2020/12/31 11:36:57;;;;;;;13.10;5.85;;;;;;;;;;5062111;28;20029;-69
2020/12/31 11:39:22;;;;;;;9.88;5.30;;;;;;;;;;5051890;28;20028;-69
2020/12/31 11:41:51;;;;;;;3.33;1.95;;;;;;;;;;5048068;28;20044;-68
2020/12/31 11:44:16;;;;;;;11.38;5.90;;;;;;;;;;5035458;28;20029;-69
2020/12/31 11:46:43;;;;;;;6.47;3.28;;;;;;;;;;5044164;28;20544;-69
2020/12/31 11:49:08;;;;;;;7.80;4.00;;;;;;;;;;5057576;28;20017;-69
2020/12/31 11:51:33;;;;;;;6.30;2.90;;;;;;;;;;5052631;28;20042;-69
2020/12/31 11:53:58;;;;;;;7.57;3.67;;;;;;;;;;5062773;28;20480;-69
2020/12/31 11:56:23;;;;;;;5.70;3.25;;;;;;;;;;5051627;28;20096;-69
2020/12/31 11:58:49;;;;;;;6.70;3.30;;;;;;;;;;5053603;28;20032;-69
2020/12/31 12:01:16;;;;;;;9.75;4.93;;;;;;;;;;5052058;28;20041;-69
2020/12/31 12:03:41;;;;;;;8.77;4.40;;;;;;;;;;5054123;28;20024;-69
2020/12/31 12:06:07;;;;;;;4.18;2.08;;;;;;;;;;5052309;28;20039;-69
2020/12/31 12:08:32;;;;;;;10.23;4.72;;;;;;;;;;5049633;28;20040;-69
2020/12/31 12:10:57;;;;;;;7.68;4.18;;;;;;;;;;5047559;28;20109;-69
2020/12/31 12:13:22;;;;;;;8.45;4.35;;;;;;;;;;5051838;28;20032;-69
2020/12/31 12:15:48;;;;;;;8.48;4.53;;;;;;;;;;5048699;28;20108;-70
2020/12/31 12:18:14;;;;;;;5.78;2.58;;;;;;;;;;5053390;28;20021;-69
2020/12/31 12:20:39;;;;;;;9.25;3.00;;;;;;;;;;5055851;28;20021;-69
2020/12/31 12:23:04;;;;;;;4.05;2.38;;;;;;;;;;5052343;28;20439;-69
2020/12/31 12:25:29;;;;;;;5.53;3.28;;;;;;;;;;5050461;28;20045;-70
2020/12/31 12:27:54;;;;;;;6.78;3.42;;;;;;;;;;5052844;28;20459;-69
2020/12/31 12:30:20;;;;;;;4.83;2.60;;;;;;;;;;5058529;28;20022;-70
2020/12/31 12:32:46;;;;;;;7.30;4.28;;;;;;;;;;5044725;28;20283;-70
2020/12/31 12:35:11;;;;;;;7.65;4.18;;;;;;;;;;5055537;28;20032;-69
2020/12/31 12:37:37;;;;;;;5.22;3.30;;;;;;;;;;5055911;28;20033;-69
2020/12/31 12:40:04;;;;;;;6.15;2.35;;;;;;;;;;5062711;28;20324;-69
2020/12/31 12:42:31;;;;;;;5.38;3.00;;;;;;;;;;5065132;28;20103;-69
2020/12/31 12:44:56;;;;;;;6.13;3.45;;;;;;;;;;5057812;28;20487;-70
2020/12/31 12:47:21;;;;;;;8.48;4.43;;;;;;;;;;5055172;28;20039;-70
2020/12/31 12:49:46;;;;;;;8.75;3.25;;;;;;;;;;5058014;28;20013;-69
2020/12/31 12:52:11;;;;;;;13.10;2.90;;;;;;;;;;5053649;28;20412;-69
2020/12/31 12:54:37;;;;;;;5.35;3.55;;;;;;;;;;5066033;28;20055;-69
2020/12/31 12:57:02;;;;;;;5.05;2.67;;;;;;;;;;5052641;28;20025;-69
2020/12/31 12:59:27;;;;;;;7.28;3.60;;;;;;;;;;5063239;28;20040;-70
2020/12/31 13:01:52;;;;;;;7.22;4.03;;;;;;;;;;5103846;23;20045;-72
2020/12/31 13:04:18;;;;;;;3.05;2.20;;;;;;;;;;5048544;28;20064;-70
2020/12/31 13:06:46;;;;;;;5.45;3.60;;;;;;;;;;5051320;28;20453;-73
2020/12/31 13:09:11;;;;;;;9.75;5.00;;;;;;;;;;5048771;28;20036;-71
2020/12/31 13:11:36;;;;;;;9.02;4.28;;;;;;;;;;5049750;28;20092;-71
2020/12/31 13:14:01;;;;;;;5.53;2.38;;;;;;;;;;5050043;28;20488;-75
2020/12/31 13:16:26;;;;;;;7.07;4.13;;;;;;;;;;5048868;28;20419;-73
2020/12/31 13:18:52;;;;;;;9.27;4.35;;;;;;;;;;5049582;28;20025;-73
2020/12/31 13:21:18;;;;;;;5.85;2.63;;;;;;;;;;5052372;28;20021;-73
2020/12/31 13:23:43;;;;;;;7.53;3.83;;;;;;;;;;5051076;28;20067;-74
2020/12/31 13:26:08;;;;;;;9.23;4.10;;;;;;;;;;5050561;28;20029;-73
2020/12/31 13:28:34;;;;;;;8.48;4.97;;;;;;;;;;5049172;28;20013;-73
2020/12/31 13:31:00;;;;;;;7.88;5.00;;;;;;;;;;5050228;28;20021;-70
2020/12/31 13:33:25;;;;;;;7.00;3.22;;;;;;;;;;5049746;28;20036;-71
2020/12/31 13:35:50;;;;;;;11.02;5.30;;;;;;;;;;5048344;28;20122;-71
2020/12/31 13:38:15;;;;;;;7.80;3.37;;;;;;;;;;5050387;28;20469;-73
2020/12/31 13:40:41;;;;;;;8.63;4.88;;;;;;;;;;5050655;28;20260;-73
2020/12/31 13:43:06;;;;;;;6.38;3.60;;;;;;;;;;5049684;28;20429;-73
2020/12/31 13:45:31;;;;;;;9.43;4.65;;;;;;;;;;5050610;28;20082;-74
2020/12/31 13:47:57;;;;;;;7.95;4.40;;;;;;;;;;5048929;28;20031;-73
2020/12/31 13:50:24;;;;;;;8.63;4.20;;;;;;;;;;5067409;28;20017;-74
2020/12/31 13:52:49;;;;;;;8.18;4.22;;;;;;;;;;5040633;28;20021;-74
2020/12/31 13:55:14;;;;;;;7.38;3.42;;;;;;;;;;5045433;28;20025;-71
2020/12/31 13:57:39;;;;;;;8.23;4.15;;;;;;;;;;5049952;28;20489;-71
2020/12/31 14:00:05;;;;;;;8.52;4.80;;;;;;;;;;5049690;28;20032;-73
2020/12/31 14:02:31;;;;;;;6.45;3.65;;;;;;;;;;5048171;28;20103;-72
2020/12/31 14:04:56;;;;;;;6.85;3.15;;;;;;;;;;5049151;28;20025;-72
2020/12/31 14:07:21;;;;;;;9.98;4.43;;;;;;;;;;5048656;28;20056;-74
2020/12/31 14:09:46;;;;;;;6.43;3.63;;;;;;;;;;5050298;28;20017;-73
2020/12/31 14:12:11;;;;;;;6.00;3.10;;;;;;;;;;5045837;28;20264;-73
2020/12/31 14:14:37;;;;;;;8.63;3.95;;;;;;;;;;5049994;28;20048;-72
2020/12/31 14:17:02;;;;;;;8.52;3.95;;;;;;;;;;5048631;28;20021;-72
2020/12/31 14:19:27;;;;;;;7.18;3.47;;;;;;;;;;5048614;28;20388;-73
2020/12/31 14:21:53;;;;;;;9.25;5.03;;;;;;;;;;5050561;28;20017;-73
2020/12/31 14:24:18;;;;;;;7.72;4.30;;;;;;;;;;5049554;28;20481;-73
2020/12/31 14:26:44;;;;;;;8.52;4.65;;;;;;;;;;5048900;28;20009;-72
2020/12/31 14:29:09;;;;;;;8.38;4.45;;;;;;;;;;5050168;28;20025;-73
2020/12/31 14:31:35;;;;;;;9.18;3.80;;;;;;;;;;5050207;28;20025;-73
2020/12/31 14:34:00;;;;;;;7.45;3.47;;;;;;;;;;5066540;28;20021;-75